sensor_id;sensor_type;location;lat;lon;timestamp;temperature;humidity
79024;DHT22;68424;44.714;37.756;2023-03-09T00:00:49;24.76;41.13
79024;DHT22;68424;44.714;37.756;2023-03-09T00:01:53;24.73;41.27
79024;DHT22;68424;44.714;37.756;2023-03-09T00:02:54;24.76;41.15
79024;DHT22;68424;44.714;37.756;2023-03-09T00:03:56;24.77;41.24
79024;DHT22;68424;44.714;37.756;2023-03-09T00:04:58;24.77;41.20
79024;DHT22;68424;44.714;37.756;2023-03-09T00:05:59;24.76;41.21
79024;DHT22;68424;44.714;37.756;2023-03-09T00:07:01;24.73;41.22
79024;DHT22;68424;44.714;37.756;2023-03-09T00:08:02;24.76;41.09
79024;DHT22;68424;44.714;37.756;2023-03-09T00:09:04;24.76;40.95
79024;DHT22;68424;44.714;37.756;2023-03-09T00:10:05;24.73;41.23
79024;DHT22;68424;44.714;37.756;2023-03-09T00:11:07;24.73;41.02
79024;DHT22;68424;44.714;37.756;2023-03-09T00:12:09;24.73;41.10
79024;DHT22;68424;44.714;37.756;2023-03-09T00:13:10;24.72;41.07
79024;DHT22;68424;44.714;37.756;2023-03-09T00:14:12;24.72;40.98
79024;DHT22;68424;44.714;37.756;2023-03-09T00:15:14;24.69;41.14
79024;DHT22;68424;44.714;37.756;2023-03-09T00:16:23;24.69;41.20
79024;DHT22;68424;44.714;37.756;2023-03-09T00:17:25;24.72;41.24
79024;DHT22;68424;44.714;37.756;2023-03-09T00:18:26;24.69;41.06
79024;DHT22;68424;44.714;37.756;2023-03-09T00:19:27;24.68;41.16
79024;DHT22;68424;44.714;37.756;2023-03-09T00:20:28;24.69;41.25
79024;DHT22;68424;44.714;37.756;2023-03-09T00:21:30;24.73;40.96
79024;DHT22;68424;44.714;37.756;2023-03-09T00:22:38;24.73;41.20
79024;DHT22;68424;44.714;37.756;2023-03-09T00:23:43;24.73;41.14
79024;DHT22;68424;44.714;37.756;2023-03-09T00:24:46;24.76;40.97
79024;DHT22;68424;44.714;37.756;2023-03-09T00:25:47;24.76;41.02
79024;DHT22;68424;44.714;37.756;2023-03-09T00:26:51;24.72;41.02
79024;DHT22;68424;44.714;37.756;2023-03-09T00:27:53;24.72;41.07
79024;DHT22;68424;44.714;37.756;2023-03-09T00:28:54;24.72;41.04
79024;DHT22;68424;44.714;37.756;2023-03-09T00:29:55;24.73;40.98
79024;DHT22;68424;44.714;37.756;2023-03-09T00:31:04;24.75;41.09
79024;DHT22;68424;44.714;37.756;2023-03-09T00:32:06;24.71;41.02
79024;DHT22;68424;44.714;37.756;2023-03-09T00:33:07;24.76;40.95
79024;DHT22;68424;44.714;37.756;2023-03-09T00:34:09;24.73;40.98
79024;DHT22;68424;44.714;37.756;2023-03-09T00:35:11;24.71;41.13
79024;DHT22;68424;44.714;37.756;2023-03-09T00:36:14;24.69;41.12
79024;DHT22;68424;44.714;37.756;2023-03-09T00:37:15;24.72;41.05
79024;DHT22;68424;44.714;37.756;2023-03-09T00:38:17;24.69;41.04
79024;DHT22;68424;44.714;37.756;2023-03-09T00:39:18;24.69;41.20
79024;DHT22;68424;44.714;37.756;2023-03-09T00:40:19;24.68;41.18
79024;DHT22;68424;44.714;37.756;2023-03-09T00:41:22;24.69;41.11
79024;DHT22;68424;44.714;37.756;2023-03-09T00:42:24;24.71;40.94
79024;DHT22;68424;44.714;37.756;2023-03-09T00:43:25;24.69;41.02
79024;DHT22;68424;44.714;37.756;2023-03-09T00:44:26;24.69;41.15
79024;DHT22;68424;44.714;37.756;2023-03-09T00:45:28;24.66;41.25
79024;DHT22;68424;44.714;37.756;2023-03-09T00:46:31;24.65;41.17
79024;DHT22;68424;44.714;37.756;2023-03-09T00:47:34;24.66;41.19
79024;DHT22;68424;44.714;37.756;2023-03-09T00:48:36;24.66;41.08
79024;DHT22;68424;44.714;37.756;2023-03-09T00:49:38;24.65;41.13
79024;DHT22;68424;44.714;37.756;2023-03-09T00:50:39;24.65;40.98
79024;DHT22;68424;44.714;37.756;2023-03-09T00:51:41;24.68;41.02
79024;DHT22;68424;44.714;37.756;2023-03-09T00:52:45;24.72;40.95
79024;DHT22;68424;44.714;37.756;2023-03-09T00:53:47;24.69;40.91
79024;DHT22;68424;44.714;37.756;2023-03-09T00:54:51;24.72;40.88
79024;DHT22;68424;44.714;37.756;2023-03-09T00:55:54;24.72;40.96
79024;DHT22;68424;44.714;37.756;2023-03-09T00:56:56;24.69;40.93
79024;DHT22;68424;44.714;37.756;2023-03-09T00:57:58;24.69;41.11
79024;DHT22;68424;44.714;37.756;2023-03-09T00:59:00;24.69;41.05
79024;DHT22;68424;44.714;37.756;2023-03-09T01:00:02;24.72;41.03
79024;DHT22;68424;44.714;37.756;2023-03-09T01:01:10;24.69;41.01
79024;DHT22;68424;44.714;37.756;2023-03-09T01:02:14;24.65;40.90
79024;DHT22;68424;44.714;37.756;2023-03-09T01:03:16;24.69;41.15
79024;DHT22;68424;44.714;37.756;2023-03-09T01:04:18;24.66;41.00
79024;DHT22;68424;44.714;37.756;2023-03-09T01:05:20;24.64;41.06
79024;DHT22;68424;44.714;37.756;2023-03-09T01:06:23;24.62;41.09
79024;DHT22;68424;44.714;37.756;2023-03-09T01:07:26;24.66;41.11
79024;DHT22;68424;44.714;37.756;2023-03-09T01:08:30;24.65;41.05
79024;DHT22;68424;44.714;37.756;2023-03-09T01:09:32;24.64;41.04
79024;DHT22;68424;44.714;37.756;2023-03-09T01:10:38;24.68;41.08
79024;DHT22;68424;44.714;37.756;2023-03-09T01:11:39;24.65;41.09
79024;DHT22;68424;44.714;37.756;2023-03-09T01:12:41;24.65;40.98
79024;DHT22;68424;44.714;37.756;2023-03-09T01:13:44;24.64;40.96
79024;DHT22;68424;44.714;37.756;2023-03-09T01:14:45;24.62;41.00
79024;DHT22;68424;44.714;37.756;2023-03-09T01:15:48;24.62;41.12
79024;DHT22;68424;44.714;37.756;2023-03-09T01:16:49;24.64;41.03
79024;DHT22;68424;44.714;37.756;2023-03-09T01:17:51;24.62;40.97
79024;DHT22;68424;44.714;37.756;2023-03-09T01:18:52;24.68;40.90
79024;DHT22;68424;44.714;37.756;2023-03-09T01:19:54;24.65;41.03
79024;DHT22;68424;44.714;37.756;2023-03-09T01:20:57;24.68;40.97
79024;DHT22;68424;44.714;37.756;2023-03-09T01:21:58;24.66;41.01
79024;DHT22;68424;44.714;37.756;2023-03-09T01:23:00;24.68;40.95
79024;DHT22;68424;44.714;37.756;2023-03-09T01:24:01;24.68;40.92
79024;DHT22;68424;44.714;37.756;2023-03-09T01:25:03;24.71;40.88
79024;DHT22;68424;44.714;37.756;2023-03-09T01:26:07;24.69;40.68
79024;DHT22;68424;44.714;37.756;2023-03-09T01:27:10;24.71;40.74
79024;DHT22;68424;44.714;37.756;2023-03-09T01:28:13;24.71;40.84
79024;DHT22;68424;44.714;37.756;2023-03-09T01:29:15;24.69;40.80
79024;DHT22;68424;44.714;37.756;2023-03-09T01:30:18;24.68;40.87
79024;DHT22;68424;44.714;37.756;2023-03-09T01:31:20;24.71;40.76
79024;DHT22;68424;44.714;37.756;2023-03-09T01:32:21;24.76;40.70
79024;DHT22;68424;44.714;37.756;2023-03-09T01:33:23;24.73;40.66
79024;DHT22;68424;44.714;37.756;2023-03-09T01:34:24;24.76;40.60
79024;DHT22;68424;44.714;37.756;2023-03-09T01:35:26;24.76;40.68
79024;DHT22;68424;44.714;37.756;2023-03-09T01:36:27;24.76;40.74
79024;DHT22;68424;44.714;37.756;2023-03-09T01:37:29;24.76;40.55
79024;DHT22;68424;44.714;37.756;2023-03-09T01:38:31;24.77;40.51
79024;DHT22;68424;44.714;37.756;2023-03-09T01:39:34;24.77;40.63
79024;DHT22;68424;44.714;37.756;2023-03-09T01:40:35;24.76;40.52
79024;DHT22;68424;44.714;37.756;2023-03-09T01:41:36;24.72;40.56
79024;DHT22;68424;44.714;37.756;2023-03-09T01:42:38;24.71;40.71
79024;DHT22;68424;44.714;37.756;2023-03-09T01:43:41;24.69;40.61
79024;DHT22;68424;44.714;37.756;2023-03-09T01:44:43;24.68;40.71
79024;DHT22;68424;44.714;37.756;2023-03-09T01:46:52;24.69;40.57
79024;DHT22;68424;44.714;37.756;2023-03-09T01:47:59;24.71;40.70
79024;DHT22;68424;44.714;37.756;2023-03-09T01:49:06;24.72;40.57
79024;DHT22;68424;44.714;37.756;2023-03-09T01:50:09;24.71;40.60
79024;DHT22;68424;44.714;37.756;2023-03-09T01:51:10;24.69;40.62
79024;DHT22;68424;44.714;37.756;2023-03-09T01:52:28;24.69;40.66
79024;DHT22;68424;44.714;37.756;2023-03-09T01:53:30;24.68;40.66
79024;DHT22;68424;44.714;37.756;2023-03-09T01:54:43;24.69;40.67
79024;DHT22;68424;44.714;37.756;2023-03-09T01:55:48;24.69;40.67
79024;DHT22;68424;44.714;37.756;2023-03-09T01:56:56;24.71;40.69
79024;DHT22;68424;44.714;37.756;2023-03-09T01:58:03;24.71;40.60
79024;DHT22;68424;44.714;37.756;2023-03-09T01:59:09;24.71;40.58
79024;DHT22;68424;44.714;37.756;2023-03-09T02:00:17;24.71;40.64
79024;DHT22;68424;44.714;37.756;2023-03-09T02:01:31;24.75;40.55
79024;DHT22;68424;44.714;37.756;2023-03-09T02:02:37;24.71;40.58
79024;DHT22;68424;44.714;37.756;2023-03-09T02:03:45;24.75;40.50
79024;DHT22;68424;44.714;37.756;2023-03-09T02:04:53;24.72;40.54
79024;DHT22;68424;44.714;37.756;2023-03-09T02:07:13;24.69;40.43
79024;DHT22;68424;44.714;37.756;2023-03-09T02:08:18;24.71;40.62
79024;DHT22;68424;44.714;37.756;2023-03-09T02:09:34;24.65;40.56
79024;DHT22;68424;44.714;37.756;2023-03-09T02:10:47;24.71;40.57
79024;DHT22;68424;44.714;37.756;2023-03-09T02:11:49;24.69;40.74
79024;DHT22;68424;44.714;37.756;2023-03-09T02:12:55;24.66;40.65
79024;DHT22;68424;44.714;37.756;2023-03-09T02:14:00;24.69;40.58
79024;DHT22;68424;44.714;37.756;2023-03-09T02:15:03;24.68;40.70
79024;DHT22;68424;44.714;37.756;2023-03-09T02:16:05;24.66;40.73
79024;DHT22;68424;44.714;37.756;2023-03-09T02:17:10;24.65;40.58
79024;DHT22;68424;44.714;37.756;2023-03-09T02:18:12;24.65;40.51
79024;DHT22;68424;44.714;37.756;2023-03-09T02:19:23;24.66;40.63
79024;DHT22;68424;44.714;37.756;2023-03-09T02:20:35;24.64;40.60
79024;DHT22;68424;44.714;37.756;2023-03-09T02:21:52;24.68;40.53
79024;DHT22;68424;44.714;37.756;2023-03-09T02:22:55;24.71;40.59
79024;DHT22;68424;44.714;37.756;2023-03-09T02:24:09;24.66;40.60
79024;DHT22;68424;44.714;37.756;2023-03-09T02:25:22;24.64;40.60
79024;DHT22;68424;44.714;37.756;2023-03-09T02:26:36;24.66;40.60
79024;DHT22;68424;44.714;37.756;2023-03-09T02:27:39;24.65;40.66
79024;DHT22;68424;44.714;37.756;2023-03-09T02:28:41;24.64;40.71
79024;DHT22;68424;44.714;37.756;2023-03-09T02:29:43;24.65;40.60
79024;DHT22;68424;44.714;37.756;2023-03-09T02:30:46;24.64;40.62
79024;DHT22;68424;44.714;37.756;2023-03-09T02:31:48;24.64;40.52
79024;DHT22;68424;44.714;37.756;2023-03-09T02:32:51;24.64;40.57
79024;DHT22;68424;44.714;37.756;2023-03-09T02:34:01;24.65;40.56
79024;DHT22;68424;44.714;37.756;2023-03-09T02:35:04;24.66;40.55
79024;DHT22;68424;44.714;37.756;2023-03-09T02:36:09;24.65;40.57
79024;DHT22;68424;44.714;37.756;2023-03-09T02:37:24;24.66;40.52
79024;DHT22;68424;44.714;37.756;2023-03-09T02:38:27;24.65;40.54
79024;DHT22;68424;44.714;37.756;2023-03-09T02:39:38;24.64;40.52
79024;DHT22;68424;44.714;37.756;2023-03-09T02:40:44;24.64;40.53
79024;DHT22;68424;44.714;37.756;2023-03-09T02:41:53;24.62;40.60
79024;DHT22;68424;44.714;37.756;2023-03-09T02:42:56;24.62;40.57
79024;DHT22;68424;44.714;37.756;2023-03-09T02:43:59;24.62;40.61
79024;DHT22;68424;44.714;37.756;2023-03-09T02:45:06;24.65;40.55
79024;DHT22;68424;44.714;37.756;2023-03-09T02:46:08;24.66;40.52
79024;DHT22;68424;44.714;37.756;2023-03-09T02:47:20;24.64;40.56
79024;DHT22;68424;44.714;37.756;2023-03-09T02:48:24;24.66;40.47
79024;DHT22;68424;44.714;37.756;2023-03-09T02:49:25;24.62;40.52
79024;DHT22;68424;44.714;37.756;2023-03-09T02:50:27;24.64;40.49
79024;DHT22;68424;44.714;37.756;2023-03-09T02:51:28;24.65;40.43
79024;DHT22;68424;44.714;37.756;2023-03-09T02:52:29;24.66;40.45
79024;DHT22;68424;44.714;37.756;2023-03-09T02:53:31;24.66;40.39
79024;DHT22;68424;44.714;37.756;2023-03-09T02:54:32;24.65;40.45
79024;DHT22;68424;44.714;37.756;2023-03-09T02:55:34;24.61;40.61
79024;DHT22;68424;44.714;37.756;2023-03-09T02:56:38;24.59;40.58
79024;DHT22;68424;44.714;37.756;2023-03-09T02:57:42;24.66;40.41
79024;DHT22;68424;44.714;37.756;2023-03-09T02:58:47;24.65;40.48
79024;DHT22;68424;44.714;37.756;2023-03-09T02:59:50;24.66;40.47
79024;DHT22;68424;44.714;37.756;2023-03-09T03:00:51;24.69;40.36
79024;DHT22;68424;44.714;37.756;2023-03-09T03:01:52;24.64;40.40
79024;DHT22;68424;44.714;37.756;2023-03-09T03:02:54;24.68;40.45
79024;DHT22;68424;44.714;37.756;2023-03-09T03:03:55;24.65;40.41
79024;DHT22;68424;44.714;37.756;2023-03-09T03:04:57;24.66;40.39
79024;DHT22;68424;44.714;37.756;2023-03-09T03:05:59;24.66;40.41
79024;DHT22;68424;44.714;37.756;2023-03-09T03:07:01;24.65;40.36
79024;DHT22;68424;44.714;37.756;2023-03-09T03:08:03;24.68;40.36
79024;DHT22;68424;44.714;37.756;2023-03-09T03:09:05;24.64;40.44
79024;DHT22;68424;44.714;37.756;2023-03-09T03:10:07;24.61;40.55
79024;DHT22;68424;44.714;37.756;2023-03-09T03:11:08;24.61;40.42
79024;DHT22;68424;44.714;37.756;2023-03-09T03:12:13;24.61;40.53
79024;DHT22;68424;44.714;37.756;2023-03-09T03:13:14;24.61;40.52
79024;DHT22;68424;44.714;37.756;2023-03-09T03:14:16;24.62;40.41
79024;DHT22;68424;44.714;37.756;2023-03-09T03:15:17;24.66;40.41
79024;DHT22;68424;44.714;37.756;2023-03-09T03:16:19;24.68;40.41
79024;DHT22;68424;44.714;37.756;2023-03-09T03:17:20;24.68;40.37
79024;DHT22;68424;44.714;37.756;2023-03-09T03:18:22;24.65;40.28
79024;DHT22;68424;44.714;37.756;2023-03-09T03:19:23;24.68;40.35
79024;DHT22;68424;44.714;37.756;2023-03-09T03:20:25;24.69;40.36
79024;DHT22;68424;44.714;37.756;2023-03-09T03:21:27;24.65;40.35
79024;DHT22;68424;44.714;37.756;2023-03-09T03:22:28;24.68;40.29
79024;DHT22;68424;44.714;37.756;2023-03-09T03:23:29;24.65;40.37
79024;DHT22;68424;44.714;37.756;2023-03-09T03:24:39;24.66;40.48
79024;DHT22;68424;44.714;37.756;2023-03-09T03:25:41;24.62;40.49
79024;DHT22;68424;44.714;37.756;2023-03-09T03:26:42;24.66;40.49
79024;DHT22;68424;44.714;37.756;2023-03-09T03:27:47;24.69;40.29
79024;DHT22;68424;44.714;37.756;2023-03-09T03:28:49;24.75;40.19
79024;DHT22;68424;44.714;37.756;2023-03-09T03:29:56;24.73;40.12
79024;DHT22;68424;44.714;37.756;2023-03-09T03:30:57;24.72;40.13
79024;DHT22;68424;44.714;37.756;2023-03-09T03:32:00;24.68;40.35
79024;DHT22;68424;44.714;37.756;2023-03-09T03:33:02;24.68;40.17
79024;DHT22;68424;44.714;37.756;2023-03-09T03:34:06;24.64;40.23
79024;DHT22;68424;44.714;37.756;2023-03-09T03:35:13;24.66;40.14
79024;DHT22;68424;44.714;37.756;2023-03-09T03:36:18;24.68;40.24
79024;DHT22;68424;44.714;37.756;2023-03-09T03:37:22;24.68;40.09
79024;DHT22;68424;44.714;37.756;2023-03-09T03:38:24;24.69;40.03
79024;DHT22;68424;44.714;37.756;2023-03-09T03:39:26;24.69;40.01
79024;DHT22;68424;44.714;37.756;2023-03-09T03:40:33;24.71;39.97
79024;DHT22;68424;44.714;37.756;2023-03-09T03:41:38;24.71;39.98
79024;DHT22;68424;44.714;37.756;2023-03-09T03:42:42;24.75;40.03
79024;DHT22;68424;44.714;37.756;2023-03-09T03:43:45;24.75;39.97
79024;DHT22;68424;44.714;37.756;2023-03-09T03:44:48;24.73;39.90
79024;DHT22;68424;44.714;37.756;2023-03-09T03:45:52;24.73;39.97
79024;DHT22;68424;44.714;37.756;2023-03-09T03:46:56;24.76;39.70
79024;DHT22;68424;44.714;37.756;2023-03-09T03:47:57;24.76;39.92
79024;DHT22;68424;44.714;37.756;2023-03-09T03:48:59;24.73;39.85
79024;DHT22;68424;44.714;37.756;2023-03-09T03:50:02;24.72;39.89
79024;DHT22;68424;44.714;37.756;2023-03-09T03:51:06;24.68;39.94
79024;DHT22;68424;44.714;37.756;2023-03-09T03:52:08;24.72;39.93
79024;DHT22;68424;44.714;37.756;2023-03-09T03:53:10;24.69;39.99
79024;DHT22;68424;44.714;37.756;2023-03-09T03:54:12;24.68;39.94
79024;DHT22;68424;44.714;37.756;2023-03-09T03:55:13;24.69;40.03
79024;DHT22;68424;44.714;37.756;2023-03-09T03:56:15;24.69;39.96
79024;DHT22;68424;44.714;37.756;2023-03-09T03:57:19;24.69;40.01
79024;DHT22;68424;44.714;37.756;2023-03-09T03:58:24;24.71;39.91
79024;DHT22;68424;44.714;37.756;2023-03-09T03:59:26;24.71;39.83
79024;DHT22;68424;44.714;37.756;2023-03-09T04:00:28;24.69;39.93
79024;DHT22;68424;44.714;37.756;2023-03-09T04:01:33;24.66;39.91
79024;DHT22;68424;44.714;37.756;2023-03-09T04:02:39;24.66;40.08
79024;DHT22;68424;44.714;37.756;2023-03-09T04:03:47;24.62;40.11
79024;DHT22;68424;44.714;37.756;2023-03-09T04:04:48;24.62;40.12
79024;DHT22;68424;44.714;37.756;2023-03-09T04:05:51;24.59;40.17
79024;DHT22;68424;44.714;37.756;2023-03-09T04:06:54;24.57;40.24
79024;DHT22;68424;44.714;37.756;2023-03-09T04:07:57;24.55;40.24
79024;DHT22;68424;44.714;37.756;2023-03-09T04:08:59;24.61;40.19
79024;DHT22;68424;44.714;37.756;2023-03-09T04:10:01;24.64;40.08
79024;DHT22;68424;44.714;37.756;2023-03-09T04:11:08;24.66;40.22
79024;DHT22;68424;44.714;37.756;2023-03-09T04:12:13;24.65;40.02
79024;DHT22;68424;44.714;37.756;2023-03-09T04:13:16;24.62;40.02
79024;DHT22;68424;44.714;37.756;2023-03-09T04:14:19;24.64;39.92
79024;DHT22;68424;44.714;37.756;2023-03-09T04:15:20;24.66;40.15
79024;DHT22;68424;44.714;37.756;2023-03-09T04:16:23;24.69;39.98
79024;DHT22;68424;44.714;37.756;2023-03-09T04:17:26;24.72;39.93
79024;DHT22;68424;44.714;37.756;2023-03-09T04:18:27;24.73;39.94
79024;DHT22;68424;44.714;37.756;2023-03-09T04:19:29;24.73;40.15
79024;DHT22;68424;44.714;37.756;2023-03-09T04:20:31;24.72;40.08
79024;DHT22;68424;44.714;37.756;2023-03-09T04:21:33;24.69;40.11
79024;DHT22;68424;44.714;37.756;2023-03-09T04:22:35;24.75;40.10
79024;DHT22;68424;44.714;37.756;2023-03-09T04:23:37;24.75;40.03
79024;DHT22;68424;44.714;37.756;2023-03-09T04:24:39;24.75;40.18
79024;DHT22;68424;44.714;37.756;2023-03-09T04:25:40;24.75;40.26
79024;DHT22;68424;44.714;37.756;2023-03-09T04:26:42;24.75;40.18
79024;DHT22;68424;44.714;37.756;2023-03-09T04:27:50;24.72;40.23
79024;DHT22;68424;44.714;37.756;2023-03-09T04:29:21;24.79;40.28
79024;DHT22;68424;44.714;37.756;2023-03-09T04:30:24;24.76;40.48
79024;DHT22;68424;44.714;37.756;2023-03-09T04:31:29;24.76;40.40
79024;DHT22;68424;44.714;37.756;2023-03-09T04:32:31;24.77;40.30
79024;DHT22;68424;44.714;37.756;2023-03-09T04:33:38;24.83;40.34
79024;DHT22;68424;44.714;37.756;2023-03-09T04:34:44;24.86;40.20
79024;DHT22;68424;44.714;37.756;2023-03-09T04:35:46;24.90;40.07
79024;DHT22;68424;44.714;37.756;2023-03-09T04:36:54;24.92;40.21
79024;DHT22;68424;44.714;37.756;2023-03-09T04:37:57;24.94;40.13
79024;DHT22;68424;44.714;37.756;2023-03-09T04:38:58;24.93;40.40
79024;DHT22;68424;44.714;37.756;2023-03-09T04:40:03;24.87;40.28
79024;DHT22;68424;44.714;37.756;2023-03-09T04:41:10;24.83;40.42
79024;DHT22;68424;44.714;37.756;2023-03-09T04:42:12;24.83;40.51
79024;DHT22;68424;44.714;37.756;2023-03-09T04:43:14;24.89;40.43
79024;DHT22;68424;44.714;37.756;2023-03-09T04:44:17;24.90;40.36
79024;DHT22;68424;44.714;37.756;2023-03-09T04:45:19;24.87;40.36
79024;DHT22;68424;44.714;37.756;2023-03-09T04:46:22;24.89;40.44
79024;DHT22;68424;44.714;37.756;2023-03-09T04:47:26;24.89;40.63
79024;DHT22;68424;44.714;37.756;2023-03-09T04:48:28;24.89;40.71
79024;DHT22;68424;44.714;37.756;2023-03-09T04:49:29;24.89;40.44
79024;DHT22;68424;44.714;37.756;2023-03-09T04:50:31;24.92;40.44
79024;DHT22;68424;44.714;37.756;2023-03-09T04:51:36;24.92;40.48
79024;DHT22;68424;44.714;37.756;2023-03-09T04:52:38;24.93;40.33
79024;DHT22;68424;44.714;37.756;2023-03-09T04:53:40;24.94;40.46
79024;DHT22;68424;44.714;37.756;2023-03-09T04:54:41;24.93;40.36
79024;DHT22;68424;44.714;37.756;2023-03-09T04:55:43;24.93;40.43
79024;DHT22;68424;44.714;37.756;2023-03-09T04:56:47;24.96;40.29
79024;DHT22;68424;44.714;37.756;2023-03-09T04:57:53;24.96;40.32
79024;DHT22;68424;44.714;37.756;2023-03-09T04:58:55;24.92;40.47
79024;DHT22;68424;44.714;37.756;2023-03-09T04:59:58;24.94;40.32
79024;DHT22;68424;44.714;37.756;2023-03-09T05:01:02;24.99;40.18
79024;DHT22;68424;44.714;37.756;2023-03-09T05:02:04;25.00;40.31
79024;DHT22;68424;44.714;37.756;2023-03-09T05:03:14;25.00;40.31
79024;DHT22;68424;44.714;37.756;2023-03-09T05:04:21;24.97;40.23
79024;DHT22;68424;44.714;37.756;2023-03-09T05:05:31;24.94;40.37
79024;DHT22;68424;44.714;37.756;2023-03-09T05:06:34;24.93;40.32
79024;DHT22;68424;44.714;37.756;2023-03-09T05:07:36;24.93;40.29
79024;DHT22;68424;44.714;37.756;2023-03-09T05:08:40;24.97;40.13
79024;DHT22;68424;44.714;37.756;2023-03-09T05:09:42;24.90;40.10
79024;DHT22;68424;44.714;37.756;2023-03-09T05:10:45;24.89;40.19
79024;DHT22;68424;44.714;37.756;2023-03-09T05:11:47;24.89;40.17
79024;DHT22;68424;44.714;37.756;2023-03-09T05:12:55;24.89;40.11
79024;DHT22;68424;44.714;37.756;2023-03-09T05:14:00;24.90;40.04
79024;DHT22;68424;44.714;37.756;2023-03-09T05:15:04;24.90;40.07
79024;DHT22;68424;44.714;37.756;2023-03-09T05:16:08;24.92;39.99
79024;DHT22;68424;44.714;37.756;2023-03-09T05:17:13;24.92;39.94
79024;DHT22;68424;44.714;37.756;2023-03-09T05:18:15;24.93;39.93
79024;DHT22;68424;44.714;37.756;2023-03-09T05:19:17;24.94;39.89
79024;DHT22;68424;44.714;37.756;2023-03-09T05:20:18;24.92;39.95
79024;DHT22;68424;44.714;37.756;2023-03-09T05:21:26;24.87;39.97
79024;DHT22;68424;44.714;37.756;2023-03-09T05:22:28;24.89;39.97
79024;DHT22;68424;44.714;37.756;2023-03-09T05:23:30;24.90;39.99
79024;DHT22;68424;44.714;37.756;2023-03-09T05:24:31;24.87;39.97
79024;DHT22;68424;44.714;37.756;2023-03-09T05:25:33;24.93;39.96
79024;DHT22;68424;44.714;37.756;2023-03-09T05:26:38;24.90;39.91
79024;DHT22;68424;44.714;37.756;2023-03-09T05:27:40;24.89;39.89
79024;DHT22;68424;44.714;37.756;2023-03-09T05:28:42;24.90;39.93
79024;DHT22;68424;44.714;37.756;2023-03-09T05:29:44;24.89;39.95
79024;DHT22;68424;44.714;37.756;2023-03-09T05:30:46;24.86;39.93
79024;DHT22;68424;44.714;37.756;2023-03-09T05:31:47;24.86;39.95
79024;DHT22;68424;44.714;37.756;2023-03-09T05:32:49;24.86;39.90
79024;DHT22;68424;44.714;37.756;2023-03-09T05:33:52;24.85;39.93
79024;DHT22;68424;44.714;37.756;2023-03-09T05:34:54;24.85;39.96
79024;DHT22;68424;44.714;37.756;2023-03-09T05:35:55;24.87;39.90
79024;DHT22;68424;44.714;37.756;2023-03-09T05:36:57;24.86;39.88
79024;DHT22;68424;44.714;37.756;2023-03-09T05:38:00;24.85;39.90
79024;DHT22;68424;44.714;37.756;2023-03-09T05:39:03;24.83;39.93
79024;DHT22;68424;44.714;37.756;2023-03-09T05:40:05;24.80;39.94
79024;DHT22;68424;44.714;37.756;2023-03-09T05:41:09;24.86;39.85
79024;DHT22;68424;44.714;37.756;2023-03-09T05:42:10;24.79;39.88
79024;DHT22;68424;44.714;37.756;2023-03-09T05:43:13;24.79;39.99
79024;DHT22;68424;44.714;37.756;2023-03-09T05:44:15;24.77;39.99
79024;DHT22;68424;44.714;37.756;2023-03-09T05:45:16;24.75;40.03
79024;DHT22;68424;44.714;37.756;2023-03-09T05:46:17;24.75;40.08
79024;DHT22;68424;44.714;37.756;2023-03-09T05:47:18;24.72;40.07
79024;DHT22;68424;44.714;37.756;2023-03-09T05:48:20;24.75;40.10
79024;DHT22;68424;44.714;37.756;2023-03-09T05:49:21;24.73;40.07
79024;DHT22;68424;44.714;37.756;2023-03-09T05:50:24;24.71;40.03
79024;DHT22;68424;44.714;37.756;2023-03-09T05:51:25;24.71;40.08
79024;DHT22;68424;44.714;37.756;2023-03-09T05:52:28;24.73;39.99
79024;DHT22;68424;44.714;37.756;2023-03-09T05:53:32;24.75;39.97
79024;DHT22;68424;44.714;37.756;2023-03-09T05:54:35;24.73;39.95
79024;DHT22;68424;44.714;37.756;2023-03-09T05:55:41;24.77;39.91
79024;DHT22;68424;44.714;37.756;2023-03-09T05:56:44;24.77;39.84
79024;DHT22;68424;44.714;37.756;2023-03-09T05:57:47;24.79;39.82
79024;DHT22;68424;44.714;37.756;2023-03-09T05:58:50;24.79;39.83
79024;DHT22;68424;44.714;37.756;2023-03-09T05:59:56;24.79;39.87
79024;DHT22;68424;44.714;37.756;2023-03-09T06:00:57;24.76;39.88
79024;DHT22;68424;44.714;37.756;2023-03-09T06:01:59;24.75;39.93
79024;DHT22;68424;44.714;37.756;2023-03-09T06:03:04;24.75;39.87
79024;DHT22;68424;44.714;37.756;2023-03-09T06:04:15;24.76;39.80
79024;DHT22;68424;44.714;37.756;2023-03-09T06:05:19;24.76;39.84
79024;DHT22;68424;44.714;37.756;2023-03-09T06:06:22;24.75;39.81
79024;DHT22;68424;44.714;37.756;2023-03-09T06:07:23;24.75;39.88
79024;DHT22;68424;44.714;37.756;2023-03-09T06:08:26;24.77;39.75
79024;DHT22;68424;44.714;37.756;2023-03-09T06:09:31;24.75;39.78
79024;DHT22;68424;44.714;37.756;2023-03-09T06:10:35;24.73;39.86
79024;DHT22;68424;44.714;37.756;2023-03-09T06:11:37;24.72;39.84
79024;DHT22;68424;44.714;37.756;2023-03-09T06:12:38;24.71;39.87
79024;DHT22;68424;44.714;37.756;2023-03-09T06:13:41;24.72;39.86
79024;DHT22;68424;44.714;37.756;2023-03-09T06:14:45;24.72;39.88
79024;DHT22;68424;44.714;37.756;2023-03-09T06:15:47;24.73;39.78
79024;DHT22;68424;44.714;37.756;2023-03-09T06:16:49;24.72;39.82
79024;DHT22;68424;44.714;37.756;2023-03-09T06:17:51;24.76;39.77
79024;DHT22;68424;44.714;37.756;2023-03-09T06:18:56;24.73;39.73
79024;DHT22;68424;44.714;37.756;2023-03-09T06:19:59;24.72;39.83
79024;DHT22;68424;44.714;37.756;2023-03-09T06:21:02;24.69;39.85
79024;DHT22;68424;44.714;37.756;2023-03-09T06:22:05;24.71;39.81
79024;DHT22;68424;44.714;37.756;2023-03-09T06:23:08;24.75;39.74
79024;DHT22;68424;44.714;37.756;2023-03-09T06:24:10;24.73;39.71
79024;DHT22;68424;44.714;37.756;2023-03-09T06:25:11;24.73;39.67
79024;DHT22;68424;44.714;37.756;2023-03-09T06:26:14;24.73;39.71
79024;DHT22;68424;44.714;37.756;2023-03-09T06:27:24;24.75;39.70
79024;DHT22;68424;44.714;37.756;2023-03-09T06:28:25;24.79;39.64
79024;DHT22;68424;44.714;37.756;2023-03-09T06:29:27;24.76;39.66
79024;DHT22;68424;44.714;37.756;2023-03-09T06:30:29;24.76;39.69
79024;DHT22;68424;44.714;37.756;2023-03-09T06:31:31;24.72;39.66
79024;DHT22;68424;44.714;37.756;2023-03-09T06:32:33;24.71;39.72
79024;DHT22;68424;44.714;37.756;2023-03-09T06:33:35;24.72;39.71
79024;DHT22;68424;44.714;37.756;2023-03-09T06:34:37;24.76;39.69
79024;DHT22;68424;44.714;37.756;2023-03-09T06:35:41;24.73;39.73
79024;DHT22;68424;44.714;37.756;2023-03-09T06:36:44;24.72;39.79